createdAt,value
2019-02-23T08:37:51.028Z,25.40
2019-02-23T08:40:19.817Z,23.00
2019-02-23T08:42:48.500Z,21.50
2019-02-23T08:45:17.194Z,20.20
2019-02-23T08:47:45.972Z,19.10
2019-02-23T08:50:15.688Z,18.20
2019-02-23T08:52:49.304Z,17.60
2019-02-23T08:55:14.899Z,16.90
2019-02-23T08:57:45.537Z,16.40
2019-02-23T09:00:16.308Z,16.00
2019-02-23T09:02:45.372Z,15.60
2019-02-23T09:05:14.559Z,15.40
2019-02-23T09:07:43.447Z,15.10
2019-02-23T09:10:13.974Z,15.10
2019-02-23T09:12:42.749Z,14.90
2019-02-23T09:15:11.866Z,14.90
2019-02-23T09:17:40.631Z,14.90
2019-02-23T09:20:12.801Z,14.80
2019-02-23T09:22:41.583Z,14.60
2019-02-23T09:25:11.006Z,14.60
2019-02-23T09:27:39.667Z,14.50
2019-02-23T09:30:15.815Z,14.50
2019-02-23T09:32:44.511Z,14.50
2019-02-23T09:35:13.201Z,14.60
2019-02-23T09:37:41.913Z,14.60
2019-02-23T09:40:12.960Z,14.50
2019-02-23T09:42:41.681Z,14.70
2019-02-23T09:45:11.999Z,14.70
2019-02-23T09:47:40.512Z,14.80
2019-02-23T09:50:09.093Z,14.80
2019-02-23T09:52:37.782Z,14.80
2019-02-23T09:55:07.128Z,14.80
2019-02-23T09:57:38.634Z,14.90
2019-02-23T10:00:10.353Z,14.90
2019-02-23T10:02:38.976Z,14.90
2019-02-23T10:05:08.061Z,14.90
2019-02-23T10:07:36.633Z,15.00
2019-02-23T10:10:07.746Z,15.00
2019-02-23T10:12:36.573Z,14.90
2019-02-23T10:15:10.378Z,14.90
2019-02-23T10:17:38.962Z,14.80
2019-02-23T10:20:11.854Z,14.90
2019-02-23T10:22:40.534Z,14.90
2019-02-23T10:25:09.215Z,15.00
2019-02-23T10:27:37.716Z,15.00
2019-02-23T10:30:14.568Z,15.10
2019-02-23T10:32:43.252Z,15.10
2019-02-23T10:35:14.908Z,15.10
2019-02-23T10:37:43.584Z,15.20
2019-02-23T10:40:13.096Z,15.20
2019-02-23T10:42:41.780Z,15.10
2019-02-23T10:45:12.759Z,15.20
2019-02-23T10:47:41.407Z,15.30
2019-02-23T10:50:11.629Z,15.30
2019-02-23T10:52:40.413Z,15.20
2019-02-23T10:55:11.348Z,15.30
2019-02-23T10:57:39.933Z,15.30
2019-02-23T11:00:15.877Z,15.40
2019-02-23T11:02:44.685Z,15.40
2019-02-23T11:05:14.278Z,15.40
2019-02-23T11:07:43.076Z,15.60
2019-02-23T11:10:11.866Z,15.60
2019-02-23T11:12:40.649Z,15.70
2019-02-23T11:15:15.249Z,15.80
2019-02-23T11:17:43.959Z,15.70
2019-02-23T11:20:12.734Z,15.80
2019-02-23T11:22:41.528Z,15.90
2019-02-23T11:25:11.583Z,15.90
2019-02-23T11:27:40.358Z,16.00
2019-02-23T11:30:11.556Z,15.90
2019-02-23T11:32:40.155Z,16.00
2019-02-23T11:35:11.091Z,15.90
2019-02-23T11:37:39.883Z,16.00
2019-02-23T11:40:10.887Z,16.00
2019-02-23T11:42:39.608Z,16.10
2019-02-23T11:45:09.681Z,16.10
2019-02-23T11:47:38.413Z,16.20
2019-02-23T11:50:09.649Z,16.10
2019-02-23T11:52:39.515Z,16.20
2019-02-23T11:55:08.387Z,16.00
2019-02-23T11:57:37.144Z,16.10
2019-02-23T12:00:08.395Z,16.10
2019-02-23T12:02:37.056Z,16.30
2019-02-23T12:05:05.775Z,16.10
2019-02-23T12:07:34.539Z,16.10
2019-02-23T12:10:03.347Z,16.20
2019-02-23T12:12:32.219Z,16.20
2019-02-23T12:15:04.247Z,16.30
2019-02-23T12:17:32.963Z,16.30
2019-02-23T12:20:01.547Z,16.20
2019-02-23T12:22:30.237Z,16.20
2019-02-23T12:24:59.014Z,16.10
2019-02-23T12:27:27.914Z,16.10
2019-02-23T12:29:56.682Z,16.10
2019-02-23T12:32:25.383Z,16.30
2019-02-23T12:34:54.061Z,16.30
2019-02-23T12:37:22.847Z,16.40
2019-02-23T12:39:51.431Z,16.40
2019-02-23T12:42:20.116Z,16.50
2019-02-23T12:44:48.799Z,16.50
2019-02-23T12:47:17.382Z,16.60
2019-02-23T12:49:46.065Z,16.60
2019-02-23T12:52:14.648Z,16.70
2019-02-23T12:54:43.439Z,16.70
2019-02-23T12:57:12.123Z,16.60
2019-02-23T12:59:40.814Z,16.70
2019-02-23T13:02:09.489Z,16.50
2019-02-23T13:04:38.178Z,16.60
2019-02-23T13:07:06.869Z,16.50
2019-02-23T13:09:35.561Z,16.70
2019-02-23T13:12:16.522Z,16.50
2019-02-23T13:14:54.524Z,16.50
2019-02-23T13:17:43.172Z,16.40
2019-02-23T13:20:20.868Z,16.50
2019-02-23T13:23:04.686Z,16.50
2019-02-23T13:25:44.844Z,16.50
2019-02-23T13:28:42.563Z,16.50
2019-02-23T13:31:30.971Z,16.40
2019-02-23T13:34:14.606Z,16.40
2019-02-23T13:37:01.886Z,16.40
2019-02-23T13:39:45.459Z,16.40
2019-02-23T13:42:41.781Z,16.50
2019-02-23T13:45:40.686Z,16.50
2019-02-23T13:48:29.135Z,16.50
2019-02-23T13:51:15.950Z,16.50
2019-02-23T13:54:09.116Z,16.50
2019-02-23T13:56:52.737Z,16.70
2019-02-23T13:59:45.689Z,16.70
2019-02-23T14:02:39.462Z,16.80
2019-02-23T14:05:30.366Z,16.90
2019-02-23T14:08:10.624Z,16.90
2019-02-23T14:10:45.441Z,17.00
2019-02-23T14:13:20.180Z,17.00
2019-02-23T14:16:04.324Z,17.00
2019-02-23T14:18:38.959Z,17.00
2019-02-23T14:21:32.107Z,17.00
2019-02-23T14:24:19.121Z,17.00
2019-02-23T14:27:07.568Z,17.00
2019-02-23T14:29:51.516Z,16.90
2019-02-23T14:32:25.726Z,17.00
2019-02-23T14:35:03.420Z,16.90
2019-02-23T14:38:02.117Z,16.90
2019-02-23T14:40:46.063Z,17.00
2019-02-23T14:43:18.018Z,16.90
2019-02-23T14:46:04.952Z,16.90
2019-02-23T14:49:04.012Z,16.80
2019-02-23T14:51:48.085Z,16.80
2019-02-23T14:54:25.864Z,16.90
2019-02-23T14:57:12.780Z,17.10
2019-02-23T14:59:56.718Z,17.10
2019-02-23T15:02:40.173Z,17.10
2019-02-23T15:05:20.921Z,17.00
2019-02-23T15:08:13.879Z,17.20
2019-02-23T15:11:08.063Z,17.30
2019-02-23T15:13:54.397Z,17.30
2019-02-23T15:16:44.759Z,17.30
2019-02-23T15:19:25.664Z,17.20
2019-02-23T15:22:13.690Z,17.10
2019-02-23T15:25:13.633Z,17.20
2019-02-23T15:27:57.234Z,17.10
2019-02-23T15:30:30.789Z,17.10
2019-02-23T15:33:08.496Z,17.10
2019-02-23T15:35:43.479Z,17.10
2019-02-23T15:38:27.417Z,17.30
2019-02-23T15:41:15.857Z,17.30
2019-02-23T15:44:16.595Z,17.30
2019-02-23T15:46:57.363Z,17.20
2019-02-23T15:49:27.962Z,17.10
2019-02-23T15:51:56.654Z,17.00
2019-02-23T15:54:25.411Z,17.00
2019-02-23T15:56:54.319Z,17.10
2019-02-23T15:59:23.007Z,17.10
2019-02-23T16:01:51.588Z,17.10
2019-02-23T16:04:20.177Z,17.10
2019-02-23T16:06:48.744Z,17.10
2019-02-23T16:09:17.444Z,17.00
2019-02-23T16:11:46.223Z,16.90
2019-02-23T16:14:14.902Z,17.00
2019-02-23T16:16:43.584Z,17.00
2019-02-23T16:19:12.474Z,17.00
2019-02-23T16:21:41.057Z,17.00
2019-02-23T16:24:09.843Z,17.00
2019-02-23T16:26:38.527Z,17.00
2019-02-23T16:29:07.211Z,17.00
2019-02-23T16:31:35.885Z,16.90
2019-02-23T16:34:07.170Z,16.80
2019-02-23T16:36:34.801Z,16.80
2019-02-23T16:39:05.126Z,16.80
2019-02-23T16:41:33.708Z,16.70
2019-02-23T16:44:02.394Z,16.70
2019-02-23T16:46:31.080Z,16.70
2019-02-23T16:48:59.768Z,16.80
2019-02-23T16:51:28.448Z,16.80
2019-02-23T16:53:57.027Z,16.80
2019-02-23T16:56:25.609Z,16.70
2019-02-23T16:58:54.194Z,16.70
2019-02-23T17:01:22.908Z,16.60
2019-02-23T17:03:51.568Z,16.50
2019-02-23T17:06:20.449Z,16.50
2019-02-23T17:08:49.135Z,16.60
2019-02-23T17:11:17.921Z,16.50
2019-02-23T17:13:46.506Z,16.40
2019-02-23T17:16:15.195Z,16.40
2019-02-23T17:18:43.846Z,16.40
2019-02-23T17:21:14.533Z,16.30
2019-02-23T17:23:43.293Z,16.30
2019-02-23T17:26:12.182Z,16.20
2019-02-23T17:28:40.865Z,16.30
2019-02-23T17:31:11.401Z,16.20
2019-02-23T17:33:40.068Z,16.30
2019-02-23T17:36:08.869Z,16.30
2019-02-23T17:38:37.546Z,16.20
2019-02-23T17:41:06.335Z,16.30
2019-02-23T17:43:35.231Z,16.20
2019-02-23T17:46:03.922Z,16.20
2019-02-23T17:51:00.960Z,16.10
2019-02-23T17:53:29.654Z,16.10
2019-02-23T17:55:58.234Z,16.10
2019-02-23T17:58:26.922Z,16.10
2019-02-23T18:00:57.757Z,16.10
2019-02-23T18:03:26.448Z,16.00
2019-02-23T18:05:55.374Z,16.00
2019-02-23T18:08:24.121Z,15.90
2019-02-23T18:10:52.827Z,15.90
2019-02-23T18:13:21.596Z,15.80
2019-02-23T18:15:50.286Z,15.70
2019-02-23T18:18:18.971Z,15.70
2019-02-23T18:20:48.341Z,15.70
2019-02-23T18:23:17.045Z,15.60
2019-02-23T18:25:45.815Z,15.60
2019-02-23T18:28:14.528Z,15.60
2019-02-23T18:30:43.445Z,15.60
2019-02-23T18:33:12.094Z,15.50
2019-02-23T18:35:40.775Z,15.50
2019-02-23T18:38:09.374Z,15.50
2019-02-23T18:40:38.031Z,15.40
2019-02-23T18:43:06.828Z,15.40
2019-02-23T18:45:35.718Z,15.40
2019-02-23T18:48:04.399Z,15.40
2019-02-23T18:50:32.882Z,15.40
2019-02-23T18:53:01.696Z,15.30
2019-02-23T18:55:30.562Z,15.30
2019-02-23T18:57:59.461Z,15.20
2019-02-23T19:00:28.028Z,15.30
2019-02-23T19:02:56.716Z,15.20
2019-02-23T19:05:25.501Z,15.20
2019-02-23T19:07:54.089Z,15.20
2019-02-23T19:10:22.772Z,15.20
2019-02-23T19:12:51.455Z,15.30
2019-02-23T19:15:20.144Z,15.30
2019-02-23T19:17:48.721Z,15.20
2019-02-23T19:20:17.439Z,15.20
2019-02-23T19:22:45.986Z,15.20
2019-02-23T19:25:14.568Z,15.10
2019-02-23T19:27:43.160Z,15.10
2019-02-23T19:30:13.595Z,15.10
2019-02-23T19:32:42.363Z,15.00
2019-02-23T19:35:11.048Z,14.90
2019-02-23T19:37:39.833Z,15.00
2019-02-23T19:40:09.648Z,15.00
2019-02-23T19:42:38.331Z,15.00
2019-02-23T19:45:11.332Z,15.00
2019-02-23T19:47:41.928Z,15.00
2019-02-23T19:50:14.219Z,15.00
2019-02-23T19:52:43.106Z,15.00
2019-02-23T19:55:14.822Z,14.90
2019-02-23T19:57:43.547Z,14.90
2019-02-23T20:00:12.555Z,14.90
2019-02-23T20:02:41.800Z,14.80
2019-02-23T20:05:14.616Z,14.80
2019-02-23T20:07:43.407Z,14.80
2019-02-23T20:10:12.087Z,14.80
2019-02-23T20:12:40.773Z,14.90
2019-02-23T20:15:10.790Z,14.90
2019-02-23T20:17:39.371Z,14.80
2019-02-23T20:20:08.875Z,14.80
2019-02-23T20:22:37.665Z,14.80
2019-02-23T20:25:08.499Z,14.80
2019-02-23T20:27:37.189Z,14.70
2019-02-23T20:30:09.254Z,14.70
2019-02-23T20:32:37.933Z,14.60
2019-02-23T20:35:08.375Z,14.70
2019-02-23T20:37:37.047Z,14.70
2019-02-23T20:40:08.045Z,14.70
2019-02-23T20:42:36.761Z,14.70
2019-02-23T20:45:07.599Z,14.60
2019-02-23T20:47:36.388Z,14.60
2019-02-23T20:50:10.556Z,14.60
2019-02-23T20:52:39.505Z,14.50
2019-02-23T20:55:09.186Z,14.50
2019-02-23T20:57:37.817Z,14.50
2019-02-23T21:00:10.934Z,14.50
2019-02-23T21:02:40.103Z,14.60
2019-02-23T21:05:13.220Z,14.50
2019-02-23T21:07:42.579Z,14.50
2019-02-23T21:10:11.451Z,14.40
2019-02-23T21:12:40.241Z,14.40
2019-02-23T21:15:10.668Z,14.40
2019-02-23T21:17:39.341Z,14.40
2019-02-23T21:20:09.511Z,14.40
2019-02-23T21:22:38.254Z,14.30
2019-02-23T21:25:08.195Z,14.30
2019-02-23T21:27:36.840Z,14.20
2019-02-23T21:30:10.080Z,14.10
2019-02-23T21:32:38.615Z,14.00
2019-02-23T21:35:08.529Z,14.00
2019-02-23T21:37:37.210Z,13.90
2019-02-23T21:40:12.087Z,13.90
2019-02-23T21:42:41.031Z,13.80
2019-02-23T21:45:09.911Z,13.80
2019-02-23T21:47:38.708Z,13.90
2019-02-23T21:50:09.353Z,13.90
2019-02-23T21:52:37.919Z,13.80
2019-02-23T21:55:06.811Z,13.80
2019-02-23T21:57:35.392Z,13.90
2019-02-23T22:00:05.406Z,13.80
2019-02-23T22:02:34.093Z,13.80
2019-02-23T22:05:11.670Z,13.80
2019-02-23T22:07:33.448Z,13.80
2019-02-23T22:10:01.989Z,13.80
2019-02-23T22:12:30.674Z,13.80
2019-02-23T22:14:59.477Z,13.80
2019-02-23T22:17:28.155Z,13.80
2019-02-23T22:19:56.937Z,13.70
2019-02-23T22:22:25.623Z,13.70
2019-02-23T22:24:54.183Z,13.70
2019-02-23T22:27:30.951Z,13.70
2019-02-23T22:29:53.411Z,13.70
2019-02-23T22:32:22.203Z,13.70
2019-02-23T22:34:50.885Z,13.70
2019-02-23T22:37:19.466Z,13.70
2019-02-23T22:39:48.149Z,13.60
2019-02-23T22:42:16.834Z,13.50
2019-02-23T22:44:45.624Z,13.50
2019-02-23T22:47:14.192Z,13.50
2019-02-23T22:49:43.095Z,13.50
2019-02-23T22:52:11.781Z,13.40
2019-02-23T22:54:40.467Z,13.40
2019-02-23T22:57:09.045Z,13.40
2019-02-23T22:59:38.043Z,13.30
2019-02-23T23:02:07.030Z,13.20
2019-02-23T23:04:35.724Z,13.20
2019-02-23T23:07:04.503Z,13.20
2019-02-23T23:09:33.289Z,13.20
2019-02-23T23:12:02.078Z,13.10
2019-02-23T23:14:30.759Z,13.20
2019-02-23T23:16:59.448Z,13.30
2019-02-23T23:19:28.126Z,13.20
2019-02-23T23:21:56.926Z,13.20
2019-02-23T23:24:25.494Z,13.30
2019-02-23T23:26:54.182Z,13.20
2019-02-23T23:29:22.765Z,13.30
2019-02-23T23:31:51.554Z,13.40
2019-02-23T23:34:20.336Z,13.30
2019-02-23T23:36:49.126Z,13.30
2019-02-23T23:39:17.919Z,13.20
2019-02-23T23:41:46.583Z,13.10
2019-02-23T23:44:15.664Z,13.10
2019-02-23T23:46:44.374Z,13.10
2019-02-23T23:49:13.051Z,13.10
2019-02-23T23:51:41.849Z,13.00
2019-02-23T23:54:10.635Z,13.00
2019-02-23T23:56:39.321Z,13.00
2019-02-23T23:59:08.002Z,13.00
